Time;durP1;ratioP1;P1;durP2;ratioP2;P2;SDS_P1;SDS_P2;PMS_P1;PMS_P2;Temp;Humidity;BMP_temperature;BMP_pressure;BME280_temperature;BME280_humidity;BME280_pressure;Samples;Min_cycle;Max_cycle;Signal;HPM_P1;HPM_P2
2022/02/13 09:49:29;;;;;;;;;7.00;7.00;;;;;17.58;52.68;101080.69;5101235;27;45977;-72
2022/02/13 09:51:55;;;;;;;;;7.00;7.00;;;;;17.74;52.71;101077.66;5090924;27;45726;-68
2022/02/13 09:54:20;;;;;;;;;8.00;7.25;;;;;17.97;52.68;101061.50;5087383;27;45526;-68
2022/02/13 09:56:47;;;;;;;;;6.50;5.75;;;;;18.23;52.53;101069.34;5086989;27;45513;-70
2022/02/13 12:50:46;;;;;;;;;7.50;5.75;;;;;18.75;50.43;100622.31;5057297;27;45508;-70
2022/02/13 12:53:14;;;;;;;;;6.25;6.00;;;;;18.87;50.73;100610.44;5067073;28;45661;-70
2022/02/13 12:55:41;;;;;;;;;8.75;8.75;;;;;19.05;50.17;100607.09;5068020;27;45533;-70
2022/02/13 12:58:07;;;;;;;;;8.75;7.00;;;;;19.26;49.71;100606.09;5069330;28;45956;-70
2022/02/13 13:00:45;;;;;;;;;7.00;7.00;;;;;19.50;50.04;100594.88;5068395;28;47328;-69
2022/02/13 13:03:13;;;;;;;;;10.50;8.00;;;;;19.78;49.05;100581.44;5068520;27;47044;-69
2022/02/13 13:05:42;;;;;;;;;7.50;7.50;;;;;20.05;49.01;100574.44;5067774;28;45583;-69
2022/02/13 13:08:19;;;;;;;;;4.50;4.50;;;;;20.31;48.84;100572.88;5066340;28;45698;-71
2022/02/13 13:10:47;;;;;;;;;7.00;5.33;;;;;20.57;48.27;100566.75;5065096;28;46042;-70
2022/02/13 13:13:14;;;;;;;;;7.00;5.33;;;;;20.80;48.10;100559.03;5067360;28;48936;-69
2022/02/13 13:15:53;;;;;;;;;9.67;8.33;;;;;21.03;47.99;100547.78;5069360;28;45363;-69
2022/02/13 13:18:32;;;;;;;;;7.75;6.25;;;;;21.27;47.33;100536.34;5062675;28;48325;-70
2022/02/13 13:20:57;;;;;;;;;7.00;6.00;;;;;21.46;46.83;100535.28;5060216;27;46162;-69
2022/02/13 13:23:23;;;;;;;;;9.00;6.00;;;;;21.66;47.17;100521.53;5067708;27;45425;-68
2022/02/13 13:25:49;;;;;;;;;7.00;7.00;;;;;21.83;47.05;100513.53;5065275;28;45519;-71
2022/02/13 13:28:17;;;;;;;;;7.00;6.33;;;;;22.01;46.41;100518.84;5072726;27;45474;-69
2022/02/13 13:30:44;;;;;;;;;8.00;7.33;;;;;22.18;46.34;100506.22;5064767;27;45502;-69
2022/02/13 13:33:11;;;;;;;;;8.00;7.00;;;;;22.33;46.02;100502.88;5062594;28;45436;-69
2022/02/13 13:35:38;;;;;;;;;8.00;6.67;;;;;22.47;46.34;100496.81;5066270;28;45471;-69
2022/02/13 13:38:04;;;;;;;;;9.00;9.00;;;;;22.59;46.03;100500.06;5066116;28;45636;-68
2022/02/13 13:40:33;;;;;;;;;9.33;6.00;;;;;22.70;45.90;100484.50;5066262;28;46312;-69
2022/02/13 13:43:08;;;;;;;;;12.67;7.67;;;;;22.83;45.37;100492.97;5065201;28;45453;-69
2022/02/13 13:45:36;;;;;;;;;8.00;6.67;;;;;22.94;45.73;100471.97;5065304;27;45657;-69
2022/02/13 13:48:03;;;;;;;;;8.33;6.67;;;;;23.05;45.47;100478.91;5065217;28;45448;-70
2022/02/13 13:50:37;;;;;;;;;8.00;6.00;;;;;23.14;44.99;100456.22;5065012;28;46239;-70
2022/02/13 13:53:07;;;;;;;;;7.33;7.00;;;;;23.22;44.99;100449.94;5065556;28;45435;-70
2022/02/13 13:55:32;;;;;;;;;7.00;6.00;;;;;23.28;44.77;100435.69;5065464;28;45435;-68
2022/02/13 13:57:58;;;;;;;;;7.00;7.00;;;;;23.41;45.04;100441.44;5068959;28;45520;-68
2022/02/13 14:00:24;;;;;;;;;6.00;6.00;;;;;23.49;44.93;100439.69;5060879;28;46718;-70
2022/02/13 14:02:57;;;;;;;;;4.00;4.00;;;;;23.57;44.67;100434.25;5049383;28;46062;-71
2022/02/13 14:05:23;;;;;;;;;6.33;4.33;;;;;23.64;44.81;100427.13;5051622;28;45803;-70
2022/02/13 14:07:50;;;;;;;;;7.00;6.33;;;;;23.69;44.45;100421.16;5049634;28;45525;-71
2022/02/13 14:10:16;;;;;;;;;6.33;6.00;;;;;23.76;44.77;100415.88;5051924;28;46748;-71
2022/02/13 14:12:42;;;;;;;;;8.33;6.33;;;;;23.80;44.21;100409.06;5052185;28;45940;-71
2022/02/13 14:15:08;;;;;;;;;6.67;5.67;;;;;23.84;43.94;100398.72;5052490;28;45548;-72
2022/02/13 14:17:33;;;;;;;;;6.00;5.00;;;;;23.87;43.95;100396.47;5051499;28;45512;-70
2022/02/13 14:19:59;;;;;;;;;6.67;6.67;;;;;23.88;43.72;100381.94;5053761;28;46070;-72
2022/02/13 14:22:24;;;;;;;;;7.33;6.00;;;;;23.91;43.72;100399.69;5052154;28;45452;-72
2022/02/13 14:24:50;;;;;;;;;9.33;6.33;;;;;23.94;43.46;100397.47;5055848;28;45639;-71
2022/02/13 14:27:15;;;;;;;;;5.00;5.00;;;;;23.95;43.45;100382.06;5052099;28;45434;-71
2022/02/13 14:29:41;;;;;;;;;8.67;6.00;;;;;23.95;43.30;100382.88;5052919;28;45467;-71
2022/02/13 14:32:07;;;;;;;;;5.67;5.00;;;;;23.97;43.44;100379.16;5052496;28;45732;-71
2022/02/13 14:34:32;;;;;;;;;7.00;5.67;;;;;23.95;43.61;100363.91;5052951;28;45604;-70
2022/02/13 14:36:59;;;;;;;;;10.33;6.00;;;;;23.97;43.49;100357.47;5054627;28;45458;-72
2022/02/13 14:39:24;;;;;;;;;10.00;7.00;;;;;23.96;43.67;100353.94;5051993;28;46449;-71
2022/02/13 14:41:50;;;;;;;;;7.67;7.33;;;;;23.99;43.34;100355.44;5050319;28;47842;-71
2022/02/13 18:55:09;;;;;;;;;14.25;10.00;;;;;18.00;51.65;100072.97;5096223;27;55669;-79
2022/02/13 18:57:35;;;;;;;;;9.00;8.25;;;;;18.11;52.24;100074.66;5089268;27;45322;-77
2022/02/13 19:00:00;;;;;;;;;9.00;7.00;;;;;18.27;51.94;100074.84;5087386;27;45555;-77
2022/02/13 19:02:27;;;;;;;;;8.75;6.50;;;;;18.49;51.50;100064.72;5082233;27;45309;-80
2022/02/13 19:04:52;;;;;;;;;10.25;7.00;;;;;18.74;51.39;100059.56;5084630;27;48095;-81
2022/02/13 19:07:17;;;;;;;;;12.50;9.50;;;;;19.00;50.86;100057.97;5082849;27;45594;-75
2022/02/13 19:09:43;;;;;;;;;8.50;7.00;;;;;19.26;50.47;100054.50;5085017;27;45340;-82
2022/02/13 19:12:08;;;;;;;;;10.25;7.50;;;;;19.49;50.54;100052.13;5073372;27;45542;-79
2022/02/13 19:14:33;;;;;;;;;9.25;8.75;;;;;19.74;49.99;100065.72;5082300;27;46063;-81
2022/02/13 19:17:00;;;;;;;;;15.75;10.75;;;;;19.95;49.59;100057.25;5083080;27;47760;-83
2022/02/13 19:19:26;;;;;;;;;7.33;6.00;;;;;20.17;48.92;100057.72;5090272;27;45429;-81
2022/02/13 19:21:51;;;;;;;;;7.50;7.00;;;;;20.41;49.27;100053.41;5088798;27;45770;-82
2022/02/13 19:24:16;;;;;;;;;11.00;8.00;;;;;20.59;48.72;100049.75;5087721;27;45554;-79
2022/02/13 19:29:25;;;;;;;;;7.00;7.00;;;;;20.95;47.53;100045.94;5078246;27;45738;-81
2022/02/13 19:31:51;;;;;;;;;8.67;7.00;;;;;21.11;47.16;100037.00;5085702;27;45409;-83
2022/02/13 19:34:16;;;;;;;;;7.00;6.00;;;;;21.24;47.01;100033.78;5083234;27;50553;-83
2022/02/13 19:36:43;;;;;;;;;7.00;6.00;;;;;21.34;46.77;100031.78;5089369;27;45512;-88
2022/02/13 19:39:09;;;;;;;;;11.00;8.00;;;;;21.48;46.83;100023.94;5076005;27;45430;-78
2022/02/13 19:41:34;;;;;;;;;9.33;5.33;;;;;21.59;46.39;100032.53;5084269;27;48056;-79
2022/02/13 19:44:02;;;;;;;;;10.67;8.00;;;;;21.73;46.77;100032.03;5088314;27;46024;-83
2022/02/13 19:46:27;;;;;;;;;10.67;8.00;;;;;21.81;46.28;100035.56;5087374;27;45597;-79
2022/02/13 19:48:53;;;;;;;;;10.00;8.33;;;;;21.90;46.12;100030.94;5085450;27;46616;-76
2022/02/13 19:51:19;;;;;;;;;10.00;8.67;;;;;21.95;45.68;100025.03;5087555;27;45873;-77
2022/02/13 19:53:44;;;;;;;;;12.33;9.33;;;;;22.02;45.41;100020.59;5084757;27;46359;-78
2022/02/13 19:56:10;;;;;;;;;6.67;6.00;;;;;22.11;45.52;100027.66;5080911;27;45714;-77
2022/02/13 19:58:38;;;;;;;;;12.00;7.00;;;;;22.14;45.37;100014.81;5085823;27;45504;-77
2022/02/13 20:01:04;;;;;;;;;12.67;8.00;;;;;22.18;44.73;100016.13;5081581;27;45405;-77
2022/02/13 20:03:29;;;;;;;;;9.67;7.33;;;;;22.18;44.86;100011.56;5085988;27;46242;-77
2022/02/13 20:05:55;;;;;;;;;7.67;6.00;;;;;22.24;45.01;100010.03;5076587;27;45422;-78
2022/02/13 20:08:21;;;;;;;;;14.33;8.67;;;;;22.24;44.92;99993.81;5072627;28;45495;-78
2022/02/13 20:10:47;;;;;;;;;7.67;5.67;;;;;22.28;44.71;100005.97;5073715;27;45707;-77
2022/02/13 20:13:15;;;;;;;;;7.33;7.33;;;;;22.31;44.48;99991.25;5071176;27;46359;-78
2022/02/13 20:15:40;;;;;;;;;8.33;7.00;;;;;22.35;44.75;99993.41;5071403;28;45521;-78
2022/02/13 21:35:39;;;;;;;;;15.25;9.50;;;;;18.40;50.39;99932.09;5072726;27;46018;-76
2022/02/13 21:38:04;;;;;;;;;8.50;7.25;;;;;18.50;50.48;99932.03;5063681;27;45493;-74
2022/02/13 21:40:32;;;;;;;;;12.00;7.50;;;;;18.64;50.75;99925.25;5062120;27;46024;-74
2022/02/13 21:43:00;;;;;;;;;11.75;9.25;;;;;18.80;50.74;99927.22;5064664;27;45621;-72
2022/02/13 21:45:26;;;;;;;;;14.50;10.25;;;;;19.03;50.43;99918.63;5064914;28;47631;-76
2022/02/13 21:47:51;;;;;;;;;16.00;9.75;;;;;19.25;50.65;99921.81;5071994;27;45534;-82
2022/02/13 21:50:17;;;;;;;;;12.75;6.75;;;;;19.48;50.38;99914.03;5063167;27;45494;-76
2022/02/13 21:52:44;;;;;;;;;14.00;10.25;;;;;19.70;49.77;99921.69;5053969;28;45387;-80
2022/02/13 21:55:11;;;;;;;;;14.00;10.00;;;;;19.92;49.69;99917.53;5067668;28;46388;-80
2022/02/13 21:57:40;;;;;;;;;10.75;7.00;;;;;20.15;49.27;99919.63;5063268;28;45539;-82
